Time;durP1;ratioP1;P1;durP2;ratioP2;P2;SDS_P1;SDS_P2;PMS_P1;PMS_P2;Temp;Humidity;BMP_temperature;BMP_pressure;BME280_temperature;BME280_humidity;BME280_pressure;Samples;Min_cycle;Max_cycle;Signal;HPM_P1;HPM_P2
2022/03/01 00:01:26;;;;;;;;;;;14.20;23.30;;;;;;5145752;27;19966;-53
2022/03/01 00:03:51;;;;;;;;;;;14.30;23.20;;;;;;5147731;27;19923;-58
2022/03/01 00:06:17;;;;;;;;;;;14.20;23.30;;;;;;5145255;27;19945;-58
2022/03/01 00:08:43;;;;;;;;;;;14.20;23.40;;;;;;5150278;27;19923;-58
2022/03/01 00:11:09;;;;;;;;;;;14.30;23.40;;;;;;5144046;27;19934;-59
2022/03/01 00:13:36;;;;;;;;;;;14.10;23.50;;;;;;5144307;27;19983;-59
2022/03/01 00:16:02;;;;;;;;;;;14.10;23.60;;;;;;5149562;27;19923;-58
2022/03/01 00:18:28;;;;;;;;;;;14.30;23.50;;;;;;5143194;27;19922;-57
2022/03/01 00:20:54;;;;;;;;;;;14.20;23.60;;;;;;5143428;27;20397;-58
2022/03/01 00:23:20;;;;;;;;;;;14.20;23.50;;;;;;5131153;27;20298;-59
2022/03/01 00:25:46;;;;;;;;;;;14.30;23.50;;;;;;5144982;27;19927;-60
2022/03/01 00:28:11;;;;;;;;;;;14.20;23.70;;;;;;5149532;27;19927;-56
2022/03/01 00:30:37;;;;;;;;;;;14.10;23.90;;;;;;5144008;27;19930;-57
2022/03/01 00:33:03;;;;;;;;;;;14.20;23.70;;;;;;5144188;27;20393;-58
2022/03/01 00:35:29;;;;;;;;;;;14.10;23.80;;;;;;5148532;27;19991;-58
2022/03/01 00:37:54;;;;;;;;;;;14.00;23.90;;;;;;5142583;27;19938;-58
2022/03/01 00:40:20;;;;;;;;;;;13.90;24.10;;;;;;5143722;27;19923;-58
2022/03/01 00:42:46;;;;;;;;;;;14.00;24.10;;;;;;5149610;27;19923;-58
2022/03/01 00:45:11;;;;;;;;;;;13.90;24.00;;;;;;5144188;27;19930;-58
2022/03/01 00:47:37;;;;;;;;;;;14.00;24.10;;;;;;5148764;27;20584;-58
2022/03/01 00:50:03;;;;;;;;;;;13.80;24.30;;;;;;5144092;27;19971;-55
2022/03/01 00:52:29;;;;;;;;;;;14.00;24.20;;;;;;5143857;27;19973;-58
2022/03/01 00:54:55;;;;;;;;;;;13.90;24.30;;;;;;5148006;27;20355;-58
2022/03/01 00:57:21;;;;;;;;;;;13.90;24.30;;;;;;5142855;27;20370;-57
2022/03/01 00:59:46;;;;;;;;;;;14.00;24.30;;;;;;5123521;27;20331;-56
2022/03/01 01:02:12;;;;;;;;;;;14.00;24.30;;;;;;5149744;27;19923;-58
2022/03/01 01:04:38;;;;;;;;;;;14.30;24.10;;;;;;5143942;27;19927;-59
2022/03/01 01:07:04;;;;;;;;;;;14.20;24.20;;;;;;5147247;27;19973;-58
2022/03/01 01:09:29;;;;;;;;;;;14.20;24.20;;;;;;5143680;27;19952;-56
2022/03/01 01:11:55;;;;;;;;;;;14.30;24.10;;;;;;5143157;27;20014;-56
2022/03/01 01:14:21;;;;;;;;;;;14.10;24.30;;;;;;5147489;27;19963;-57
2022/03/01 01:16:47;;;;;;;;;;;14.00;24.40;;;;;;5142755;27;19935;-56
2022/03/01 01:19:12;;;;;;;;;;;14.00;24.50;;;;;;5143789;27;19928;-54
2022/03/01 01:24:23;;;;;;;;;;;13.90;24.80;;;;;;5143002;27;19923;-54
2022/03/01 01:26:49;;;;;;;;;;;13.90;24.80;;;;;;5142941;27;19935;-55
2022/03/01 01:29:15;;;;;;;;;;;13.90;24.80;;;;;;5148310;27;19927;-59
2022/03/01 01:31:40;;;;;;;;;;;13.80;25.00;;;;;;5141937;27;20363;-57
2022/03/01 01:34:06;;;;;;;;;;;13.90;25.00;;;;;;5147619;27;19923;-56
2022/03/01 01:36:32;;;;;;;;;;;13.90;25.00;;;;;;5143246;27;19923;-58
2022/03/01 01:38:58;;;;;;;;;;;14.00;25.00;;;;;;5143746;27;19923;-58
2022/03/01 01:41:24;;;;;;;;;;;13.80;25.20;;;;;;5148725;27;20223;-59
2022/03/01 01:43:49;;;;;;;;;;;13.80;25.00;;;;;;5142488;27;20018;-59
2022/03/01 01:46:15;;;;;;;;;;;13.90;25.00;;;;;;5143295;27;19931;-58
2022/03/01 01:48:41;;;;;;;;;;;13.80;25.20;;;;;;5147920;27;19923;-56
2022/03/01 01:51:07;;;;;;;;;;;13.80;25.20;;;;;;5141586;27;19923;-58
2022/03/01 01:53:33;;;;;;;;;;;13.80;25.20;;;;;;5147812;27;20286;-58
2022/03/01 01:55:58;;;;;;;;;;;13.80;25.10;;;;;;5143445;27;20027;-59
2022/03/01 01:58:24;;;;;;;;;;;13.80;25.20;;;;;;5143428;27;19968;-56
2022/03/01 02:00:50;;;;;;;;;;;13.70;25.40;;;;;;5148188;27;20327;-58
2022/03/01 02:03:16;;;;;;;;;;;13.70;25.50;;;;;;5142520;27;19966;-59
2022/03/01 02:05:41;;;;;;;;;;;13.70;25.50;;;;;;5142620;27;19931;-56
2022/03/01 02:08:07;;;;;;;;;;;13.70;25.60;;;;;;5147254;27;19931;-56
2022/03/01 02:10:33;;;;;;;;;;;13.70;25.70;;;;;;5141177;27;20386;-59
2022/03/01 02:12:59;;;;;;;;;;;13.50;25.90;;;;;;5146896;27;20030;-55
2022/03/01 02:15:25;;;;;;;;;;;13.60;25.80;;;;;;5144699;27;19923;-59
2022/03/01 02:17:50;;;;;;;;;;;13.40;26.00;;;;;;5142701;27;19976;-57
2022/03/01 02:20:20;;;;;;;;;;;13.40;26.10;;;;;;5147403;27;19938;-59
2022/03/01 02:22:46;;;;;;;;;;;13.50;26.10;;;;;;5123906;27;19923;-59
2022/03/01 02:25:12;;;;;;;;;;;13.40;26.10;;;;;;5142183;27;19927;-57
2022/03/01 02:27:38;;;;;;;;;;;13.30;26.10;;;;;;5146301;27;20000;-57
2022/03/01 02:30:04;;;;;;;;;;;13.50;25.90;;;;;;5141400;27;19933;-58
2022/03/01 02:32:30;;;;;;;;;;;13.50;25.90;;;;;;5142772;27;20022;-56
2022/03/01 02:34:56;;;;;;;;;;;13.40;25.90;;;;;;5147972;27;19930;-56
2022/03/01 02:37:21;;;;;;;;;;;13.60;25.70;;;;;;5142334;27;19942;-56
2022/03/01 02:39:47;;;;;;;;;;;13.40;25.90;;;;;;5147191;27;20444;-58
2022/03/01 02:42:13;;;;;;;;;;;13.40;25.90;;;;;;5142272;27;19930;-56
2022/03/01 02:44:39;;;;;;;;;;;13.30;26.00;;;;;;5141402;27;19993;-56
2022/03/01 02:47:05;;;;;;;;;;;13.40;26.10;;;;;;5146113;27;19931;-56
2022/03/01 02:49:30;;;;;;;;;;;13.30;26.10;;;;;;5141756;27;19930;-56
2022/03/01 02:51:56;;;;;;;;;;;13.30;26.00;;;;;;5142213;27;19927;-59
2022/03/01 02:54:22;;;;;;;;;;;13.40;25.80;;;;;;5147608;27;19983;-58
2022/03/01 02:56:48;;;;;;;;;;;13.30;26.00;;;;;;5122054;27;19924;-56
2022/03/01 02:59:13;;;;;;;;;;;13.30;26.00;;;;;;5147114;27;19988;-56
2022/03/01 03:01:39;;;;;;;;;;;13.50;25.70;;;;;;5141682;27;19934;-57
2022/03/01 03:04:05;;;;;;;;;;;13.30;25.90;;;;;;5140582;27;19927;-57
2022/03/01 03:06:30;;;;;;;;;;;13.50;25.80;;;;;;5146106;27;19938;-56
2022/03/01 03:08:56;;;;;;;;;;;13.60;25.70;;;;;;5141827;27;19923;-57
2022/03/01 03:11:22;;;;;;;;;;;13.50;25.70;;;;;;5141974;27;19930;-59
2022/03/01 03:13:48;;;;;;;;;;;13.40;25.80;;;;;;5147193;27;19979;-58
2022/03/01 03:16:14;;;;;;;;;;;13.40;25.70;;;;;;5140901;27;19927;-58
2022/03/01 03:18:40;;;;;;;;;;;13.30;25.70;;;;;;5147108;27;19931;-58
2022/03/01 03:21:06;;;;;;;;;;;13.40;25.60;;;;;;5141080;27;19930;-58
2022/03/01 03:23:32;;;;;;;;;;;13.30;25.70;;;;;;5139983;27;19966;-56
2022/03/01 03:25:57;;;;;;;;;;;13.40;25.60;;;;;;5146051;27;19937;-58
2022/03/01 03:28:23;;;;;;;;;;;13.30;25.70;;;;;;5122748;27;19974;-56
2022/03/01 03:30:49;;;;;;;;;;;13.30;25.70;;;;;;5141019;27;19963;-58
2022/03/01 03:33:15;;;;;;;;;;;13.20;25.80;;;;;;5146740;27;19934;-58
2022/03/01 03:35:41;;;;;;;;;;;13.20;25.80;;;;;;5141068;27;19944;-56
2022/03/01 03:38:06;;;;;;;;;;;13.20;25.80;;;;;;5146629;27;19965;-53
2022/03/01 03:40:32;;;;;;;;;;;13.30;25.60;;;;;;5140901;27;19931;-56
2022/03/01 03:42:58;;;;;;;;;;;13.20;25.80;;;;;;5121519;27;19923;-59
2022/03/01 03:45:24;;;;;;;;;;;13.10;25.90;;;;;;5146393;27;19941;-58
2022/03/01 03:47:49;;;;;;;;;;;13.20;25.90;;;;;;5141720;27;20305;-58
2022/03/01 03:50:15;;;;;;;;;;;13.10;25.80;;;;;;5141599;27;20117;-58
2022/03/01 03:52:41;;;;;;;;;;;13.10;25.80;;;;;;5146243;27;19923;-57
2022/03/01 03:55:07;;;;;;;;;;;13.30;25.70;;;;;;5141075;27;19976;-56
2022/03/01 03:57:33;;;;;;;;;;;13.20;25.70;;;;;;5144289;27;20374;-56
2022/03/01 03:59:59;;;;;;;;;;;13.10;25.80;;;;;;5142384;27;19930;-55
2022/03/01 04:02:25;;;;;;;;;;;13.10;25.70;;;;;;5139937;27;19987;-56
2022/03/01 04:04:51;;;;;;;;;;;13.10;25.90;;;;;;5146573;27;19923;-55
2022/03/01 04:07:17;;;;;;;;;;;13.20;25.70;;;;;;5141513;27;20286;-58
2022/03/01 04:09:43;;;;;;;;;;;13.30;25.60;;;;;;5141500;27;19966;-59
2022/03/01 04:12:10;;;;;;;;;;;13.30;25.50;;;;;;5145821;27;19966;-56
2022/03/01 04:14:36;;;;;;;;;;;13.30;25.40;;;;;;5141191;27;19923;-57
2022/03/01 04:17:02;;;;;;;;;;;13.30;25.40;;;;;;5140707;27;19929;-54
2022/03/01 04:19:28;;;;;;;;;;;13.30;25.50;;;;;;5144778;27;19923;-56
2022/03/01 04:21:54;;;;;;;;;;;13.30;25.60;;;;;;5140500;27;19930;-57
2022/03/01 04:24:19;;;;;;;;;;;13.30;25.60;;;;;;5146325;27;19923;-57
2022/03/01 04:26:45;;;;;;;;;;;13.30;25.70;;;;;;5141148;27;19931;-58
2022/03/01 04:29:11;;;;;;;;;;;13.30;25.60;;;;;;5121958;27;19972;-57
2022/03/01 04:31:37;;;;;;;;;;;13.50;25.40;;;;;;5145685;27;20017;-58
2022/03/01 04:34:03;;;;;;;;;;;13.40;25.70;;;;;;5140744;27;19923;-58
2022/03/01 04:36:29;;;;;;;;;;;13.50;25.70;;;;;;5139828;27;20370;-57
2022/03/01 04:38:55;;;;;;;;;;;13.50;25.60;;;;;;5144917;27;20039;-57
2022/03/01 04:41:21;;;;;;;;;;;13.40;25.70;;;;;;5141784;27;20366;-59
2022/03/01 04:43:46;;;;;;;;;;;13.40;25.50;;;;;;5149916;27;19927;-55
2022/03/01 04:46:12;;;;;;;;;;;13.30;25.60;;;;;;5125992;27;20357;-58
2022/03/01 04:48:38;;;;;;;;;;;13.20;25.70;;;;;;5143859;27;19927;-55
2022/03/01 04:51:04;;;;;;;;;;;13.20;25.70;;;;;;5149586;27;19924;-58
2022/03/01 04:53:30;;;;;;;;;;;13.00;25.80;;;;;;5143858;27;19970;-56
2022/03/01 04:55:56;;;;;;;;;;;13.10;25.70;;;;;;5142662;27;19923;-58
2022/03/01 04:58:21;;;;;;;;;;;13.00;25.70;;;;;;5148212;27;20013;-57
2022/03/01 05:00:47;;;;;;;;;;;13.10;25.70;;;;;;5144014;27;19975;-58
2022/03/01 05:03:13;;;;;;;;;;;13.30;25.50;;;;;;5149732;27;20366;-58
2022/03/01 05:05:39;;;;;;;;;;;13.30;25.50;;;;;;5143955;27;19975;-57
2022/03/01 05:08:04;;;;;;;;;;;13.20;25.60;;;;;;5143275;27;19953;-58
2022/03/01 05:10:30;;;;;;;;;;;13.30;25.50;;;;;;5149059;27;19930;-56
2022/03/01 05:12:58;;;;;;;;;;;13.30;25.40;;;;;;5143258;27;20170;-56
2022/03/01 05:15:24;;;;;;;;;;;13.30;25.30;;;;;;5142360;27;20464;-58
2022/03/01 05:17:50;;;;;;;;;;;13.30;25.30;;;;;;5148716;27;19971;-59
2022/03/01 05:20:16;;;;;;;;;;;13.30;25.20;;;;;;5143952;27;19923;-58
2022/03/01 05:22:42;;;;;;;;;;;13.30;25.30;;;;;;5147611;27;19930;-53
2022/03/01 05:25:09;;;;;;;;;;;13.30;25.30;;;;;;5144784;27;20358;-56
2022/03/01 05:27:38;;;;;;;;;;;13.20;25.40;;;;;;5143347;27;19929;-59
2022/03/01 05:30:04;;;;;;;;;;;13.00;25.70;;;;;;5148640;27;20177;-56
2022/03/01 05:32:32;;;;;;;;;;;13.00;25.70;;;;;;5142425;27;19978;-57
2022/03/01 05:34:58;;;;;;;;;;;13.20;25.40;;;;;;5142403;27;20017;-56
2022/03/01 05:37:24;;;;;;;;;;;13.20;25.40;;;;;;5148548;27;19924;-57
2022/03/01 05:39:49;;;;;;;;;;;13.30;25.20;;;;;;5143706;27;19931;-57
2022/03/01 05:42:15;;;;;;;;;;;13.30;25.20;;;;;;5143649;27;19934;-57
2022/03/01 05:44:41;;;;;;;;;;;13.20;25.10;;;;;;5148211;27;19926;-56
2022/03/01 05:47:07;;;;;;;;;;;13.10;25.30;;;;;;5143276;27;19927;-58
2022/03/01 05:49:33;;;;;;;;;;;13.10;25.30;;;;;;5147992;27;19923;-56
2022/03/01 05:51:59;;;;;;;;;;;13.00;25.30;;;;;;5141394;27;19923;-56
2022/03/01 05:54:25;;;;;;;;;;;13.10;25.20;;;;;;5141843;27;20401;-58
2022/03/01 05:56:51;;;;;;;;;;;13.00;25.30;;;;;;5148568;27;19931;-55
2022/03/01 05:59:17;;;;;;;;;;;13.00;25.30;;;;;;5143362;27;19945;-58
2022/03/01 06:01:42;;;;;;;;;;;12.90;25.50;;;;;;5142798;27;19954;-59
2022/03/01 06:04:08;;;;;;;;;;;13.00;25.60;;;;;;5147800;27;19926;-58
2022/03/01 06:06:34;;;;;;;;;;;13.20;25.50;;;;;;5142875;27;19927;-58
2022/03/01 06:09:03;;;;;;;;;;;13.20;25.60;;;;;;5147262;27;19926;-58
2022/03/01 06:11:29;;;;;;;;;;;13.20;25.40;;;;;;5141122;27;20072;-57
2022/03/01 06:13:54;;;;;;;;;;;13.10;25.60;;;;;;5142514;27;19923;-57
2022/03/01 06:16:20;;;;;;;;;;;13.10;25.70;;;;;;5148324;27;19930;-57
2022/03/01 06:18:46;;;;;;;;;;;13.00;25.60;;;;;;5139087;27;19929;-57
2022/03/01 06:21:12;;;;;;;;;;;12.90;25.70;;;;;;5142076;27;20678;-58
2022/03/01 06:23:38;;;;;;;;;;;13.00;25.60;;;;;;5147978;27;19923;-59
2022/03/01 06:26:03;;;;;;;;;;;13.10;25.40;;;;;;5142454;27;19927;-58
2022/03/01 06:28:29;;;;;;;;;;;13.00;25.60;;;;;;5146167;27;19927;-55
2022/03/01 06:30:55;;;;;;;;;;;13.00;25.60;;;;;;5142911;27;19923;-58
2022/03/01 06:33:21;;;;;;;;;;;12.80;25.70;;;;;;5142643;27;20320;-56
2022/03/01 06:35:47;;;;;;;;;;;12.90;25.30;;;;;;5148372;27;19935;-57
2022/03/01 06:38:12;;;;;;;;;;;12.80;25.20;;;;;;5142759;27;19950;-57
2022/03/01 06:40:38;;;;;;;;;;;12.80;25.30;;;;;;5141837;27;20422;-56
2022/03/01 06:43:04;;;;;;;;;;;12.80;25.30;;;;;;5147551;27;19927;-57
2022/03/01 06:45:30;;;;;;;;;;;12.90;25.30;;;;;;5141795;27;19981;-56
2022/03/01 06:47:56;;;;;;;;;;;13.00;25.20;;;;;;5143517;27;20378;-56
2022/03/01 06:50:21;;;;;;;;;;;12.90;25.30;;;;;;5144585;27;20006;-56
2022/03/01 06:52:47;;;;;;;;;;;12.90;25.50;;;;;;5142443;27;19923;-57
2022/03/01 06:55:13;;;;;;;;;;;13.00;25.60;;;;;;5147679;27;19922;-57
2022/03/01 06:57:39;;;;;;;;;;;12.90;25.70;;;;;;5141797;27;19946;-56
2022/03/01 07:00:05;;;;;;;;;;;12.80;25.90;;;;;;5141790;27;19954;-58
2022/03/01 07:02:38;;;;;;;;;;;12.90;25.80;;;;;;5147092;27;19927;-57
2022/03/01 07:05:10;;;;;;;;;;;12.90;25.60;;;;;;5140598;27;21346;-55
2022/03/01 07:07:36;;;;;;;;;;;12.80;25.80;;;;;;5140544;27;20375;-56
2022/03/01 07:10:02;;;;;;;;;;;12.90;25.80;;;;;;5147278;27;19938;-57
2022/03/01 07:12:28;;;;;;;;;;;12.80;25.90;;;;;;5142435;27;19923;-58
2022/03/01 07:14:54;;;;;;;;;;;12.80;25.80;;;;;;5147723;27;19967;-58
2022/03/01 07:17:20;;;;;;;;;;;12.80;25.80;;;;;;5141425;27;20067;-58
2022/03/01 07:19:46;;;;;;;;;;;12.80;25.80;;;;;;5141951;27;19922;-56
2022/03/01 07:22:11;;;;;;;;;;;12.70;26.00;;;;;;5127957;27;20334;-57
2022/03/01 07:24:37;;;;;;;;;;;12.80;25.90;;;;;;5140256;27;19927;-57
2022/03/01 07:27:03;;;;;;;;;;;12.70;26.00;;;;;;5140774;27;20182;-58
2022/03/01 07:29:30;;;;;;;;;;;12.90;25.70;;;;;;5147119;27;20358;-57
2022/03/01 07:31:57;;;;;;;;;;;12.90;25.50;;;;;;5141927;27;19929;-58
2022/03/01 07:34:23;;;;;;;;;;;12.80;25.50;;;;;;5144501;27;19930;-57
2022/03/01 07:36:49;;;;;;;;;;;12.90;25.40;;;;;;5143791;27;19937;-57
2022/03/01 07:39:15;;;;;;;;;;;12.90;25.40;;;;;;5141714;27;19931;-59
2022/03/01 07:41:40;;;;;;;;;;;12.90;25.30;;;;;;5145462;27;20363;-55
2022/03/01 07:44:06;;;;;;;;;;;12.90;25.10;;;;;;5139968;27;20021;-59
2022/03/01 07:46:32;;;;;;;;;;;13.00;25.00;;;;;;5105574;27;19995;-58
2022/03/01 07:48:58;;;;;;;;;;;13.00;25.00;;;;;;5147286;27;19938;-59
2022/03/01 07:51:23;;;;;;;;;;;13.00;24.70;;;;;;5141532;27;20022;-56
2022/03/01 07:53:50;;;;;;;;;;;13.00;24.70;;;;;;5141819;27;19930;-53
2022/03/01 07:56:15;;;;;;;;;;;13.20;24.40;;;;;;5146256;27;19942;-59
2022/03/01 07:58:42;;;;;;;;;;;13.20;24.40;;;;;;5140581;27;19971;-59
2022/03/01 08:01:08;;;;;;;;;;;13.10;24.50;;;;;;5144709;27;19972;-56
2022/03/01 08:03:34;;;;;;;;;;;13.10;24.40;;;;;;5139886;27;20328;-56
2022/03/01 08:06:00;;;;;;;;;;;13.10;24.40;;;;;;5141298;27;19927;-59
2022/03/01 08:08:27;;;;;;;;;;;13.00;24.30;;;;;;5146973;27;19934;-58
2022/03/01 08:10:53;;;;;;;;;;;13.10;24.30;;;;;;5141187;27;19931;-57
2022/03/01 08:13:18;;;;;;;;;;;12.90;24.40;;;;;;5140415;27;19956;-57
2022/03/01 08:15:44;;;;;;;;;;;12.90;24.30;;;;;;5146751;27;20004;-55
2022/03/01 08:18:10;;;;;;;;;;;12.90;24.40;;;;;;5143782;27;20388;-57
2022/03/01 08:20:36;;;;;;;;;;;13.10;24.20;;;;;;5148327;27;20322;-58
2022/03/01 08:23:02;;;;;;;;;;;13.10;24.30;;;;;;5143887;27;19952;-57
2022/03/01 08:25:28;;;;;;;;;;;13.10;24.20;;;;;;5144670;27;19934;-56
2022/03/01 08:27:53;;;;;;;;;;;13.10;24.10;;;;;;5150122;27;19969;-58
2022/03/01 08:30:19;;;;;;;;;;;13.10;24.20;;;;;;5143968;27;20031;-56
2022/03/01 08:32:46;;;;;;;;;;;13.10;24.20;;;;;;5144143;27;20412;-59
2022/03/01 08:35:11;;;;;;;;;;;13.10;24.30;;;;;;5149388;27;20522;-58
2022/03/01 08:37:37;;;;;;;;;;;13.10;24.20;;;;;;5142989;27;19968;-59
2022/03/01 08:40:03;;;;;;;;;;;13.10;24.20;;;;;;5148219;27;19930;-57
2022/03/01 08:42:29;;;;;;;;;;;13.00;24.20;;;;;;5144063;27;19977;-58
2022/03/01 08:44:55;;;;;;;;;;;13.30;23.90;;;;;;5144249;27;19935;-56
2022/03/01 08:47:21;;;;;;;;;;;13.30;23.70;;;;;;5149776;27;19927;-57
2022/03/01 08:49:46;;;;;;;;;;;13.30;23.70;;;;;;5143424;27;19972;-55
2022/03/01 08:52:14;;;;;;;;;;;13.20;23.80;;;;;;5144219;27;19946;-57
2022/03/01 08:54:40;;;;;;;;;;;13.20;23.80;;;;;;5148771;27;19929;-57
2022/03/01 08:57:06;;;;;;;;;;;13.30;23.80;;;;;;5123956;27;19929;-58
2022/03/01 08:59:32;;;;;;;;;;;13.30;23.60;;;;;;5146542;27;19924;-53
2022/03/01 09:01:58;;;;;;;;;;;13.30;23.70;;;;;;5146448;27;20036;-57
2022/03/01 09:04:24;;;;;;;;;;;13.40;23.50;;;;;;5143887;27;19981;-60
2022/03/01 09:06:49;;;;;;;;;;;13.40;23.50;;;;;;5149105;27;20008;-58
2022/03/01 09:09:15;;;;;;;;;;;13.60;23.30;;;;;;5124706;27;19971;-59
2022/03/01 09:11:41;;;;;;;;;;;13.50;23.40;;;;;;5143718;27;20370;-57
2022/03/01 09:14:07;;;;;;;;;;;13.40;23.30;;;;;;5148187;27;20282;-57
2022/03/01 09:16:33;;;;;;;;;;;13.30;23.30;;;;;;5142213;27;19927;-59
2022/03/01 09:18:58;;;;;;;;;;;13.40;23.30;;;;;;5144564;27;19931;-55
2022/03/01 09:21:24;;;;;;;;;;;13.70;23.00;;;;;;5148409;27;20013;-55
2022/03/01 09:23:50;;;;;;;;;;;13.60;23.20;;;;;;5143737;27;20374;-57
2022/03/01 09:26:16;;;;;;;;;;;13.60;23.20;;;;;;5148086;27;19927;-59
2022/03/01 09:28:42;;;;;;;;;;;13.60;23.20;;;;;;5142229;27;19923;-57
2022/03/01 09:31:10;;;;;;;;;;;13.70;23.00;;;;;;5143095;27;19930;-58
2022/03/01 09:33:42;;;;;;;;;;;13.70;23.00;;;;;;5126993;27;20462;-58
2022/03/01 09:36:11;;;;;;;;;;;13.50;23.10;;;;;;5142461;27;19923;-55
2022/03/01 09:38:37;;;;;;;;;;;13.50;23.10;;;;;;5143589;27;20560;-58
2022/03/01 09:41:03;;;;;;;;;;;13.70;23.00;;;;;;5149098;27;19928;-59
2022/03/01 09:43:28;;;;;;;;;;;13.80;22.80;;;;;;5143435;27;19958;-57
2022/03/01 09:45:54;;;;;;;;;;;13.80;22.70;;;;;;5148164;27;19983;-55
2022/03/01 09:48:20;;;;;;;;;;;13.80;22.80;;;;;;5143425;27;19940;-57
2022/03/01 09:50:46;;;;;;;;;;;13.90;22.70;;;;;;5142459;27;19930;-58
2022/03/01 09:53:11;;;;;;;;;;;13.80;22.70;;;;;;5146720;27;19934;-56
2022/03/01 09:55:37;;;;;;;;;;;13.90;22.60;;;;;;5142652;27;20286;-57
2022/03/01 09:58:03;;;;;;;;;;;13.90;22.70;;;;;;5124316;27;20133;-56
2022/03/01 10:00:29;;;;;;;;;;;14.00;22.70;;;;;;5148389;27;19946;-57
2022/03/01 10:02:56;;;;;;;;;;;14.00;22.70;;;;;;5142481;27;20072;-58
2022/03/01 10:05:34;;;;;;;;;;;13.80;22.60;;;;;;5145883;27;20367;-53
2022/03/01 10:08:07;;;;;;;;;;;13.90;22.50;;;;;;5147634;27;19927;-57
2022/03/01 10:10:36;;;;;;;;;;;13.90;22.70;;;;;;5106007;27;20406;-58
2022/03/01 10:13:02;;;;;;;;;;;14.00;22.60;;;;;;5146250;27;20401;-54
2022/03/01 10:15:28;;;;;;;;;;;14.00;22.50;;;;;;5143653;27;19923;-59
2022/03/01 10:17:54;;;;;;;;;;;14.10;22.40;;;;;;5143190;27;20014;-55
2022/03/01 10:20:20;;;;;;;;;;;14.10;22.30;;;;;;5129686;27;19934;-56
2022/03/01 10:22:47;;;;;;;;;;;14.20;22.20;;;;;;5123386;27;19930;-57
2022/03/01 10:25:14;;;;;;;;;;;14.00;22.10;;;;;;5142746;27;19923;-58
2022/03/01 10:27:40;;;;;;;;;;;13.90;22.20;;;;;;5147439;27;19927;-58
2022/03/01 10:30:06;;;;;;;;;;;13.90;22.10;;;;;;5122536;27;19938;-56
2022/03/01 10:32:32;;;;;;;;;;;14.00;22.00;;;;;;5143565;27;19929;-55
2022/03/01 10:34:58;;;;;;;;;;;13.80;22.10;;;;;;5128592;27;19946;-59
2022/03/01 10:37:26;;;;;;;;;;;14.20;21.80;;;;;;5142617;27;19929;-57
2022/03/01 10:39:51;;;;;;;;;;;14.20;21.80;;;;;;5146863;27;19935;-59
2022/03/01 10:42:25;;;;;;;;;;;14.20;21.70;;;;;;5142354;27;19975;-58
2022/03/01 10:44:56;;;;;;;;;;;14.10;21.80;;;;;;5141633;27;19923;-58
2022/03/01 10:47:22;;;;;;;;;;;14.20;21.80;;;;;;5145869;27;19953;-59
2022/03/01 10:49:48;;;;;;;;;;;14.20;21.90;;;;;;5141007;27;19927;-55
2022/03/01 10:52:14;;;;;;;;;;;14.10;22.00;;;;;;5121849;27;20398;-57
2022/03/01 10:54:40;;;;;;;;;;;14.00;22.20;;;;;;5129310;27;20426;-57
2022/03/01 10:57:10;;;;;;;;;;;14.20;22.20;;;;;;5142092;27;19945;-56
2022/03/01 10:59:37;;;;;;;;;;;14.30;22.10;;;;;;5143645;27;20304;-56
2022/03/01 11:02:03;;;;;;;;;;;14.10;21.80;;;;;;5145565;27;20018;-59
2022/03/01 11:04:29;;;;;;;;;;;14.20;21.60;;;;;;5141242;27;19923;-58
2022/03/01 11:06:55;;;;;;;;;;;14.40;21.40;;;;;;5126994;27;20168;-58
2022/03/01 11:09:24;;;;;;;;;;;14.40;21.30;;;;;;5122627;27;19942;-59
2022/03/01 11:11:50;;;;;;;;;;;14.40;21.10;;;;;;5123530;27;20035;-56
2022/03/01 11:14:18;;;;;;;;;;;14.40;20.90;;;;;;5147514;27;20360;-57
2022/03/01 11:16:53;;;;;;;;;;;14.50;20.70;;;;;;5141277;27;20293;-57
2022/03/01 11:19:24;;;;;;;;;;;14.40;20.90;;;;;;5121871;27;19923;-59
2022/03/01 11:21:49;;;;;;;;;;;14.30;21.30;;;;;;5126690;27;19946;-58
2022/03/01 11:24:17;;;;;;;;;;;14.30;21.50;;;;;;5140300;27;20243;-59
2022/03/01 11:26:43;;;;;;;;;;;14.30;21.50;;;;;;5123727;27;20371;-55
2022/03/01 11:29:09;;;;;;;;;;;14.30;21.40;;;;;;5145220;27;19982;-58
2022/03/01 11:31:35;;;;;;;;;;;14.30;21.30;;;;;;5141791;27;19927;-58
2022/03/01 11:34:10;;;;;;;;;;;14.20;21.30;;;;;;5146878;27;19965;-57
2022/03/01 11:36:36;;;;;;;;;;;14.50;20.80;;;;;;5140804;27;19923;-57
2022/03/01 11:39:12;;;;;;;;;;;14.50;20.80;;;;;;5141332;27;19927;-58
2022/03/01 11:41:41;;;;;;;;;;;14.60;20.70;;;;;;5145919;27;20013;-58
2022/03/01 11:44:07;;;;;;;;;;;14.70;20.40;;;;;;5139618;27;20401;-58
2022/03/01 11:46:40;;;;;;;;;;;14.70;20.30;;;;;;5140877;27;20018;-57
2022/03/01 11:49:06;;;;;;;;;;;14.60;20.40;;;;;;5147167;27;19923;-58
2022/03/01 11:51:32;;;;;;;;;;;14.50;20.30;;;;;;5140917;27;20030;-57
2022/03/01 11:53:59;;;;;;;;;;;14.60;20.10;;;;;;5140810;27;20378;-57
2022/03/01 11:56:25;;;;;;;;;;;14.70;20.00;;;;;;5146453;27;20289;-57
2022/03/01 11:58:50;;;;;;;;;;;14.70;19.80;;;;;;5140856;27;19923;-59
2022/03/01 12:01:19;;;;;;;;;;;14.80;19.60;;;;;;5144936;27;20514;-58
2022/03/01 12:03:47;;;;;;;;;;;14.90;19.50;;;;;;5120773;27;20354;-58
2022/03/01 12:06:12;;;;;;;;;;;15.00;19.50;;;;;;5141000;27;19971;-58
2022/03/01 12:08:38;;;;;;;;;;;14.90;19.50;;;;;;5146887;27;19930;-58
2022/03/01 12:11:04;;;;;;;;;;;15.00;19.30;;;;;;5140904;27;19923;-56
2022/03/01 12:13:37;;;;;;;;;;;15.10;19.20;;;;;;5140076;27;20299;-57
2022/03/01 12:16:03;;;;;;;;;;;15.30;19.00;;;;;;5146302;27;20433;-58
2022/03/01 12:18:30;;;;;;;;;;;15.10;19.30;;;;;;5139897;27;19927;-57
2022/03/01 12:21:00;;;;;;;;;;;15.10;19.50;;;;;;5122143;27;19923;-52
2022/03/01 12:23:27;;;;;;;;;;;14.90;19.80;;;;;;5145481;27;20289;-57
2022/03/01 12:25:52;;;;;;;;;;;14.80;19.90;;;;;;5141175;27;19937;-59
2022/03/01 12:28:18;;;;;;;;;;;14.90;19.70;;;;;;5146285;27;20392;-58
2022/03/01 12:30:44;;;;;;;;;;;14.80;19.90;;;;;;5140190;27;20343;-56
2022/03/01 12:33:11;;;;;;;;;;;14.80;20.10;;;;;;5140729;27;20010;-59
2022/03/01 12:35:37;;;;;;;;;;;15.00;19.90;;;;;;5145646;27;20009;-59
2022/03/01 12:38:06;;;;;;;;;;;15.00;19.80;;;;;;5139132;27;19958;-58
2022/03/01 12:40:35;;;;;;;;;;;15.20;19.50;;;;;;5138566;27;21302;-55
2022/03/01 12:43:01;;;;;;;;;;;15.20;19.60;;;;;;5145711;27;19988;-58
2022/03/01 12:45:37;;;;;;;;;;;15.20;19.70;;;;;;5140980;27;20338;-58
2022/03/01 12:48:04;;;;;;;;;;;15.30;19.90;;;;;;5141570;27;20769;-54
2022/03/01 12:50:30;;;;;;;;;;;15.20;20.00;;;;;;5126745;27;20372;-58
2022/03/01 12:52:56;;;;;;;;;;;15.20;19.80;;;;;;5140432;27;19929;-59
2022/03/01 12:55:22;;;;;;;;;;;15.10;19.70;;;;;;5144974;27;20347;-58
2022/03/01 12:57:48;;;;;;;;;;;15.10;19.60;;;;;;5138611;27;19923;-56
2022/03/01 13:00:14;;;;;;;;;;;15.10;19.60;;;;;;5139730;27;19926;-57
2022/03/01 13:02:57;;;;;;;;;;;15.30;19.80;;;;;;5129446;27;19927;-55
2022/03/01 13:05:26;;;;;;;;;;;15.10;19.90;;;;;;5143984;27;19923;-56
2022/03/01 13:07:52;;;;;;;;;;;15.20;19.70;;;;;;5143347;27;19937;-57
2022/03/01 13:10:31;;;;;;;;;;;15.30;19.60;;;;;;5149130;27;19923;-57
2022/03/01 13:12:58;;;;;;;;;;;15.20;19.60;;;;;;5143469;27;19929;-57
2022/03/01 13:15:24;;;;;;;;;;;15.20;19.50;;;;;;5142201;27;19944;-57
2022/03/01 13:17:50;;;;;;;;;;;15.10;19.30;;;;;;5129552;27;19929;-57
2022/03/01 13:20:18;;;;;;;;;;;15.00;19.40;;;;;;5143730;27;19929;-56
2022/03/01 13:22:44;;;;;;;;;;;15.20;19.40;;;;;;5149045;27;19923;-53
2022/03/01 13:25:10;;;;;;;;;;;15.30;19.30;;;;;;5143768;27;20329;-54
2022/03/01 13:27:35;;;;;;;;;;;15.10;19.50;;;;;;5143036;27;19923;-59
2022/03/01 13:30:01;;;;;;;;;;;15.20;19.40;;;;;;5128587;27;19923;-57
2022/03/01 13:32:27;;;;;;;;;;;15.30;19.40;;;;;;5142508;27;19930;-58
2022/03/01 13:35:01;;;;;;;;;;;15.30;19.30;;;;;;5123468;27;20045;-57
2022/03/01 13:37:26;;;;;;;;;;;15.30;19.40;;;;;;5129976;27;19960;-59
2022/03/01 13:39:53;;;;;;;;;;;15.30;19.40;;;;;;5143407;27;19927;-55
2022/03/01 13:42:18;;;;;;;;;;;15.20;19.50;;;;;;5143501;27;19934;-54
2022/03/01 13:44:45;;;;;;;;;;;15.70;19.30;;;;;;5148035;27;19923;-51
2022/03/01 13:47:19;;;;;;;;;;;15.80;19.30;;;;;;5143011;27;19929;-58
2022/03/01 13:49:52;;;;;;;;;;;15.80;19.30;;;;;;5148314;27;20014;-56
2022/03/01 13:52:18;;;;;;;;;;;15.80;19.20;;;;;;5142573;27;19934;-57
2022/03/01 13:54:45;;;;;;;;;;;15.80;19.00;;;;;;5121420;27;20426;-55
2022/03/01 13:57:21;;;;;;;;;;;15.80;19.00;;;;;;5148389;27;19927;-59
2022/03/01 14:00:00;;;;;;;;;;;15.80;19.00;;;;;;5143258;27;20025;-58
2022/03/01 14:02:26;;;;;;;;;;;15.70;19.20;;;;;;5143072;27;20279;-56
2022/03/01 14:04:56;;;;;;;;;;;15.80;19.10;;;;;;5147731;27;19983;-59
2022/03/01 14:07:25;;;;;;;;;;;15.80;19.10;;;;;;5142935;27;19923;-60
2022/03/01 14:09:52;;;;;;;;;;;15.70;19.20;;;;;;5141829;27;20275;-59
2022/03/01 14:12:17;;;;;;;;;;;15.80;18.90;;;;;;5146707;27;19927;-59
2022/03/01 14:14:44;;;;;;;;;;;15.80;18.90;;;;;;5141801;27;19984;-58